createdAt,value
2022-07-26T00:01:18.374Z,67.34
2022-07-26T00:03:45.827Z,67.73
2022-07-26T00:06:12.946Z,68.13
2022-07-26T00:08:40.039Z,66.55
2022-07-26T00:11:07.502Z,66.76
2022-07-26T00:13:35.045Z,67.09
2022-07-26T00:16:02.412Z,67.02
2022-07-26T00:18:29.548Z,68.11
2022-07-26T00:20:56.680Z,67.55
2022-07-26T00:23:24.981Z,68.13
2022-07-26T00:25:52.052Z,68.09
2022-07-26T00:28:19.123Z,67.80
2022-07-26T00:30:46.595Z,67.16
2022-07-26T00:33:13.904Z,66.40
2022-07-26T00:35:41.182Z,66.36
2022-07-26T00:38:08.346Z,67.28
2022-07-26T00:40:36.114Z,66.07
2022-07-26T00:43:03.240Z,67.86
2022-07-26T00:45:30.336Z,66.57
2022-07-26T00:47:57.401Z,66.73
2022-07-26T00:50:24.516Z,67.64
2022-07-26T00:52:51.621Z,66.35
2022-07-26T00:55:19.000Z,66.09
2022-07-26T00:57:46.676Z,65.95
2022-07-26T01:00:15.823Z,66.00
2022-07-26T01:02:43.718Z,65.96
2022-07-26T01:05:10.976Z,65.05
2022-07-26T01:07:38.696Z,65.32
2022-07-26T01:10:08.632Z,64.83
2022-07-26T01:12:35.685Z,64.43
2022-07-26T01:15:02.914Z,64.56
2022-07-26T01:17:30.019Z,64.91
2022-07-26T01:19:57.123Z,64.30
2022-07-26T01:22:24.254Z,64.96
2022-07-26T01:24:51.311Z,64.46
2022-07-26T01:27:18.422Z,64.65
2022-07-26T01:29:45.504Z,65.33
2022-07-26T01:32:12.819Z,64.87
2022-07-26T01:34:40.033Z,64.95
2022-07-26T01:37:07.160Z,64.67
2022-07-26T01:39:34.179Z,66.50
2022-07-26T01:42:01.364Z,66.52
2022-07-26T01:44:28.453Z,66.69
2022-07-26T01:46:55.511Z,66.80
2022-07-26T01:49:22.765Z,66.86
2022-07-26T01:51:49.841Z,67.03
2022-07-26T01:54:22.480Z,67.20
2022-07-26T01:56:51.689Z,67.62
2022-07-26T01:59:18.765Z,67.12
2022-07-26T02:01:45.895Z,66.71
2022-07-26T02:04:32.995Z,66.27
2022-07-26T02:07:00.153Z,67.51
2022-07-26T02:09:27.880Z,67.18
2022-07-26T02:11:59.110Z,66.88
2022-07-26T02:14:28.132Z,67.73
2022-07-26T02:16:59.997Z,68.06
2022-07-26T02:19:27.935Z,68.66
2022-07-26T02:21:55.060Z,69.29
2022-07-26T02:24:22.251Z,68.51
2022-07-26T02:26:49.324Z,68.88
2022-07-26T02:29:16.369Z,68.63
2022-07-26T02:31:48.339Z,68.04
2022-07-26T02:34:16.961Z,67.67
2022-07-26T02:36:44.149Z,68.88
2022-07-26T02:39:11.525Z,67.55
2022-07-26T02:41:38.959Z,68.03
2022-07-26T02:44:06.878Z,69.28
2022-07-26T02:46:34.308Z,70.66
2022-07-26T02:49:01.508Z,70.40
2022-07-26T02:51:28.767Z,70.82
2022-07-26T02:53:55.821Z,70.62
2022-07-26T09:03:26.604Z,38.79
2022-07-26T09:05:55.542Z,39.37
2022-07-26T09:08:24.835Z,39.06
2022-07-26T09:10:52.000Z,39.02
2022-07-26T09:13:20.194Z,38.75
2022-07-26T09:15:47.303Z,38.63
2022-07-26T09:18:28.255Z,38.68
2022-07-26T09:20:55.548Z,38.23
2022-07-26T09:23:22.900Z,37.68
2022-07-26T09:25:49.954Z,37.27
2022-07-26T09:28:29.720Z,36.92
2022-07-26T09:30:58.550Z,36.07
2022-07-26T09:33:26.632Z,35.68
2022-07-26T09:36:06.989Z,35.66
2022-07-26T09:38:47.301Z,35.87
2022-07-26T09:41:21.463Z,35.95
2022-07-26T09:43:53.689Z,36.25
2022-07-26T09:46:22.364Z,35.99
2022-07-26T09:51:38.694Z,36.73
2022-07-26T09:54:05.964Z,37.19
2022-07-26T09:56:46.858Z,37.75
2022-07-26T09:59:15.678Z,37.80
2022-07-26T10:01:43.103Z,37.91
2022-07-26T10:04:11.458Z,38.18
2022-07-26T10:06:39.129Z,38.67
2022-07-26T10:09:06.962Z,39.15
2022-07-26T10:11:41.362Z,39.78
2022-07-26T10:18:09.601Z,39.87
2022-07-26T10:20:46.171Z,37.72
2022-07-26T10:23:38.654Z,38.05
2022-07-26T10:26:08.020Z,37.75
2022-07-26T10:28:38.142Z,37.43
2022-07-26T10:31:29.552Z,39.12
2022-07-26T10:33:57.968Z,39.61
2022-07-26T10:36:29.313Z,36.81
2022-07-26T10:38:59.499Z,35.69
2022-07-26T10:41:34.334Z,36.47
2022-07-26T10:48:05.317Z,36.85
2022-07-26T10:50:33.511Z,36.11
2022-07-26T10:53:01.344Z,36.20
2022-07-26T10:55:28.384Z,36.23
2022-07-26T10:57:55.534Z,36.05
2022-07-26T11:00:47.536Z,36.07
2022-07-26T11:03:15.770Z,36.57
2022-07-26T11:05:43.563Z,36.32
2022-07-26T11:08:10.927Z,37.14
2022-07-26T11:10:42.705Z,36.33
2022-07-26T11:13:17.511Z,36.52
2022-07-26T11:15:46.316Z,35.64
2022-07-26T11:18:24.935Z,35.17
2022-07-26T11:20:54.114Z,34.43
2022-07-26T11:23:46.568Z,34.28
2022-07-26T11:27:16.709Z,34.39
2022-07-26T11:29:45.504Z,34.55
2022-07-26T11:32:19.042Z,34.19
2022-07-26T11:34:46.608Z,33.51
2022-07-26T11:37:14.084Z,32.32
2022-07-26T11:39:41.249Z,32.17
2022-07-26T11:42:13.560Z,31.01
2022-07-26T11:44:44.336Z,30.73
2022-07-26T11:47:15.274Z,31.30
2022-07-26T11:50:00.094Z,31.56
2022-07-26T11:52:31.242Z,32.14
2022-07-26T11:54:58.635Z,32.49
2022-07-26T11:57:29.935Z,29.70
2022-07-26T11:59:58.192Z,28.82
2022-07-26T12:02:26.044Z,29.98
2022-07-26T12:05:15.668Z,31.00
2022-07-26T12:07:56.217Z,29.38
2022-07-26T12:10:24.227Z,29.37
2022-07-26T12:13:10.766Z,30.09
2022-07-26T12:15:48.595Z,29.60
2022-07-26T12:18:36.756Z,28.89
2022-07-26T12:21:08.869Z,30.69
2022-07-26T12:23:43.566Z,31.40
2022-07-26T12:26:20.934Z,30.64
2022-07-26T12:28:48.019Z,31.61
2022-07-26T12:31:25.933Z,30.79
2022-07-26T12:33:53.132Z,30.52
2022-07-26T12:36:27.875Z,29.85
2022-07-26T12:39:00.332Z,29.67
2022-07-26T12:41:34.559Z,29.52
2022-07-26T12:44:01.776Z,29.33
2022-07-26T12:46:31.536Z,29.85
2022-07-26T12:49:00.629Z,30.28
2022-07-26T12:51:53.387Z,29.89
2022-07-26T12:54:45.608Z,30.05
2022-07-26T12:57:12.794Z,29.80
2022-07-26T12:59:44.788Z,30.32
2022-07-26T13:02:12.708Z,29.92
2022-07-26T13:04:39.908Z,30.24
2022-07-26T13:07:07.104Z,30.05
2022-07-26T13:09:34.208Z,30.10
2022-07-26T13:12:01.864Z,30.45
2022-07-26T13:14:54.731Z,29.80
2022-07-26T13:17:21.895Z,29.95
2022-07-26T13:19:48.994Z,29.45
2022-07-26T13:22:16.109Z,28.79
2022-07-26T13:24:43.251Z,28.90
2022-07-26T13:27:11.264Z,29.43
2022-07-26T13:29:38.432Z,29.16
2022-07-26T13:32:05.834Z,28.91
2022-07-26T13:34:35.200Z,29.06
2022-07-26T13:37:02.577Z,29.94
2022-07-26T13:39:35.516Z,29.73
2022-07-26T13:42:02.693Z,28.82
2022-07-26T13:44:29.798Z,29.93
2022-07-26T13:46:56.918Z,29.73
2022-07-26T13:49:24.108Z,29.85
2022-07-26T13:51:57.191Z,30.17
2022-07-26T13:54:28.912Z,29.68
2022-07-26T13:56:56.479Z,30.46
2022-07-26T13:59:23.781Z,30.30
2022-07-26T14:01:51.531Z,30.07
2022-07-26T14:04:18.838Z,30.37
2022-07-26T14:06:46.108Z,30.51
2022-07-26T14:09:13.941Z,31.08
2022-07-26T14:11:41.108Z,31.02
2022-07-26T14:14:08.481Z,31.08
2022-07-26T14:16:35.940Z,30.21
2022-07-26T14:19:03.378Z,29.52
2022-07-26T14:21:43.404Z,29.88
2022-07-26T14:24:18.631Z,30.23
2022-07-26T14:26:48.112Z,29.41
2022-07-26T14:29:15.280Z,29.20
2022-07-26T14:31:44.468Z,28.80
2022-07-26T14:34:12.027Z,28.96
2022-07-26T14:36:39.363Z,28.63
2022-07-26T14:39:06.400Z,28.68
2022-07-26T14:41:33.575Z,28.71
2022-07-26T14:44:02.232Z,28.20
2022-07-26T14:46:29.382Z,28.32
2022-07-26T14:48:56.559Z,28.08
2022-07-26T14:51:23.686Z,28.56
2022-07-26T14:53:50.762Z,28.20
2022-07-26T14:56:17.828Z,27.69
2022-07-26T14:58:44.944Z,26.60
2022-07-26T15:01:12.078Z,27.78
2022-07-26T15:03:40.955Z,27.02
2022-07-26T15:06:08.032Z,27.44
2022-07-26T15:08:35.304Z,27.61
2022-07-26T15:11:02.489Z,27.24
2022-07-26T15:13:29.577Z,27.12
2022-07-26T15:15:56.646Z,27.22
2022-07-26T15:18:24.473Z,27.18
2022-07-26T15:20:51.958Z,27.93
2022-07-26T15:23:19.302Z,27.91
2022-07-26T15:25:48.569Z,28.35
2022-07-26T15:28:18.642Z,28.65
2022-07-26T15:30:45.811Z,28.45
2022-07-26T15:33:14.470Z,27.14
2022-07-26T15:35:41.854Z,27.28
2022-07-26T15:38:08.926Z,28.37
2022-07-26T15:40:35.992Z,27.97
2022-07-26T15:43:03.078Z,27.79
2022-07-26T15:45:30.384Z,28.02
2022-07-26T15:48:13.491Z,27.99
2022-07-26T15:50:43.330Z,28.98
2022-07-26T15:53:10.475Z,29.99
2022-07-26T15:55:37.560Z,30.59
2022-07-26T15:58:04.629Z,29.94
2022-07-26T16:00:31.813Z,28.71
2022-07-26T16:02:58.893Z,28.86
2022-07-26T16:05:51.186Z,29.36
2022-07-26T16:08:18.270Z,28.80
2022-07-26T16:10:45.635Z,28.91
2022-07-26T16:13:12.713Z,29.56
2022-07-26T16:15:39.806Z,29.33
2022-07-26T16:18:07.143Z,29.38
2022-07-26T16:20:34.247Z,29.71
2022-07-26T16:23:01.398Z,29.22
2022-07-26T16:25:28.427Z,29.35
2022-07-26T16:27:55.489Z,29.46
2022-07-26T16:30:22.781Z,30.03
2022-07-26T16:32:49.850Z,30.36
2022-07-26T16:35:16.955Z,30.74
2022-07-26T16:37:44.024Z,30.79
2022-07-26T16:40:11.334Z,31.42
2022-07-26T16:42:38.428Z,31.57
2022-07-26T16:45:05.813Z,31.57
2022-07-26T16:47:32.941Z,32.03
2022-07-26T16:49:59.986Z,31.71
2022-07-26T16:52:27.192Z,31.84
2022-07-26T16:54:54.232Z,31.65
2022-07-26T16:57:21.296Z,31.72
2022-07-26T16:59:48.373Z,31.83
2022-07-26T17:02:15.465Z,31.67
2022-07-26T17:04:42.715Z,31.85
2022-07-26T17:07:26.253Z,32.17
2022-07-26T17:09:54.886Z,32.11
2022-07-26T17:12:22.768Z,32.41
2022-07-26T17:14:50.048Z,32.11
2022-07-26T17:17:17.225Z,32.24
2022-07-26T17:19:44.321Z,32.27
2022-07-26T17:22:11.437Z,32.14
2022-07-26T17:24:38.563Z,32.78
2022-07-26T17:27:05.665Z,32.63
2022-07-26T17:29:32.767Z,32.70
2022-07-26T17:31:59.854Z,32.56
2022-07-26T17:34:26.910Z,32.81
2022-07-26T17:36:58.534Z,32.63
2022-07-26T17:39:26.128Z,32.75
2022-07-26T17:42:14.753Z,32.72
2022-07-26T17:45:07.729Z,32.53
2022-07-26T17:47:34.812Z,32.22
2022-07-26T17:52:50.432Z,32.28
2022-07-26T17:55:18.930Z,32.50
2022-07-26T17:57:47.817Z,32.41
2022-07-26T18:00:16.221Z,32.77
2022-07-26T18:02:43.306Z,32.90
2022-07-26T18:05:11.333Z,33.35
2022-07-26T18:07:39.150Z,33.74
2022-07-26T18:10:07.144Z,33.53
2022-07-26T18:12:34.847Z,33.51
2022-07-26T18:15:01.934Z,34.35
2022-07-26T18:17:29.047Z,34.70
2022-07-26T18:19:56.082Z,34.32
2022-07-26T18:22:23.383Z,34.83
2022-07-26T18:24:50.702Z,35.35
2022-07-26T18:27:17.747Z,35.40
2022-07-26T18:29:44.933Z,35.84
2022-07-26T18:32:12.042Z,36.06
2022-07-26T18:34:39.085Z,36.11
2022-07-26T18:37:06.164Z,36.34
2022-07-26T18:39:33.347Z,37.38
2022-07-26T18:42:00.606Z,37.44
2022-07-26T18:44:27.728Z,37.52
2022-07-26T18:46:56.319Z,37.18
2022-07-26T18:49:30.814Z,37.58
2022-07-26T18:52:04.283Z,37.39
2022-07-26T18:54:36.383Z,37.98
2022-07-26T18:57:03.713Z,38.02
2022-07-26T18:59:31.278Z,38.55
2022-07-26T19:01:59.849Z,38.59
2022-07-26T19:04:27.617Z,38.43
2022-07-26T19:06:54.996Z,38.58
2022-07-26T19:09:22.093Z,38.59
2022-07-26T19:11:52.103Z,38.89
2022-07-26T19:14:19.162Z,39.18
2022-07-26T19:16:46.217Z,39.06
2022-07-26T19:19:13.750Z,39.29
2022-07-26T19:21:45.239Z,39.50
2022-07-26T19:24:12.395Z,39.70
2022-07-26T19:26:39.459Z,39.92
2022-07-26T19:29:06.486Z,39.74
2022-07-26T19:31:33.698Z,40.04
2022-07-26T19:34:00.837Z,40.43
2022-07-26T19:36:27.988Z,40.67
2022-07-26T19:38:56.623Z,40.75
2022-07-26T19:41:25.007Z,40.78
2022-07-26T19:43:52.056Z,41.32
2022-07-26T19:46:19.283Z,41.11
2022-07-26T19:48:46.557Z,41.49
2022-07-26T19:51:13.761Z,41.70
2022-07-26T19:53:40.839Z,41.83
2022-07-26T19:56:07.934Z,41.98
2022-07-26T19:58:35.083Z,42.31
2022-07-26T20:01:02.570Z,42.08
2022-07-26T20:03:32.616Z,42.86
2022-07-26T20:06:00.869Z,43.10
2022-07-26T20:08:27.998Z,43.33
2022-07-26T20:10:55.176Z,43.65
2022-07-26T20:13:22.248Z,43.43
2022-07-26T20:15:49.354Z,43.70
2022-07-26T20:18:19.516Z,44.19
2022-07-26T20:20:46.658Z,44.26
2022-07-26T20:23:13.754Z,44.43
2022-07-26T20:25:40.855Z,44.62
2022-07-26T20:28:07.955Z,44.53
2022-07-26T20:30:35.066Z,45.22
2022-07-26T20:33:02.217Z,45.68
2022-07-26T20:35:29.734Z,45.90
2022-07-26T20:37:56.857Z,46.50
2022-07-26T20:40:26.279Z,47.44
2022-07-26T20:42:53.413Z,47.82
2022-07-26T20:45:20.634Z,47.15
2022-07-26T20:47:47.734Z,47.40
2022-07-26T20:50:14.809Z,47.66
2022-07-26T20:52:42.207Z,46.97
2022-07-26T20:55:09.606Z,47.58
2022-07-26T20:57:36.921Z,47.31
2022-07-26T21:00:06.559Z,47.58
2022-07-26T21:02:33.973Z,47.38
2022-07-26T21:05:01.240Z,48.47
2022-07-26T21:07:56.556Z,48.48
2022-07-26T21:10:15.495Z,49.28
2022-07-26T21:12:42.747Z,49.25
2022-07-26T21:15:10.161Z,49.36
2022-07-26T21:17:37.616Z,50.38
2022-07-26T21:20:05.118Z,50.85
2022-07-26T21:22:32.195Z,51.00
2022-07-26T21:24:59.243Z,50.94
2022-07-26T21:27:26.303Z,51.24
2022-07-26T21:29:53.337Z,52.58
2022-07-26T21:32:20.419Z,52.05
2022-07-26T21:34:47.532Z,52.79
2022-07-26T21:37:14.935Z,52.80
2022-07-26T21:39:42.101Z,52.23
2022-07-26T21:42:09.136Z,51.54
2022-07-26T21:44:36.199Z,51.66
2022-07-26T21:47:05.763Z,52.86
2022-07-26T21:49:33.561Z,52.44
2022-07-26T21:52:00.606Z,52.66
2022-07-26T21:54:27.657Z,53.32
2022-07-26T21:56:54.740Z,53.23
2022-07-26T21:59:21.799Z,53.21
2022-07-26T22:01:48.946Z,53.28
2022-07-26T22:04:17.846Z,53.33
2022-07-26T22:06:45.164Z,52.85
2022-07-26T22:09:12.749Z,52.61
2022-07-26T22:11:40.036Z,52.33
2022-07-26T22:14:08.420Z,52.31
2022-07-26T22:16:35.744Z,52.59
2022-07-26T22:19:03.238Z,52.19
2022-07-26T22:21:30.294Z,53.57
2022-07-26T22:23:57.360Z,53.38
2022-07-26T22:26:30.891Z,53.06
2022-07-26T22:28:58.627Z,54.23
2022-07-26T22:31:25.862Z,54.06
2022-07-26T22:33:53.039Z,53.25
2022-07-26T22:36:20.098Z,52.88
2022-07-26T22:38:47.223Z,52.86
2022-07-26T22:41:14.301Z,53.45
2022-07-26T22:43:41.525Z,53.95
2022-07-26T22:46:08.795Z,54.46
2022-07-26T22:48:38.367Z,53.43
2022-07-26T22:51:06.138Z,52.77
2022-07-26T22:53:33.253Z,53.06
2022-07-26T22:56:00.313Z,53.08
2022-07-26T22:58:27.377Z,53.05
2022-07-26T23:00:54.556Z,53.13
2022-07-26T23:03:21.952Z,53.50
2022-07-26T23:05:50.376Z,53.83
2022-07-26T23:11:06.543Z,54.26
2022-07-26T23:13:33.748Z,54.84
2022-07-26T23:16:01.926Z,54.29
2022-07-26T23:18:30.299Z,54.39
2022-07-26T23:20:57.475Z,54.59
2022-07-26T23:23:27.790Z,54.94
2022-07-26T23:25:57.642Z,55.13
2022-07-26T23:28:35.432Z,54.90
2022-07-26T23:31:09.468Z,55.29
2022-07-26T23:33:51.693Z,54.99
2022-07-26T23:36:25.614Z,55.08
2022-07-26T23:38:53.466Z,55.76
2022-07-26T23:41:20.820Z,56.69
2022-07-26T23:43:47.895Z,55.97
2022-07-26T23:46:15.071Z,56.96
2022-07-26T23:48:42.189Z,56.30
2022-07-26T23:51:09.284Z,56.01
2022-07-26T23:53:36.377Z,56.04
2022-07-26T23:56:03.443Z,56.25
2022-07-26T23:58:30.534Z,56.74
